sensor_id;sensor_type;location;lat;lon;timestamp;temperature;humidity
16060;DHT22;8134;49.552;7.632;2022-07-12T05:00:48;13.50;99.90
16060;DHT22;8134;49.552;7.632;2022-07-12T05:03:13;13.50;99.90
16060;DHT22;8134;49.552;7.632;2022-07-12T05:05:39;13.50;99.90
16060;DHT22;8134;49.552;7.632;2022-07-12T05:08:04;13.50;99.90
16060;DHT22;8134;49.552;7.632;2022-07-12T05:10:30;13.50;99.90
16060;DHT22;8134;49.552;7.632;2022-07-12T05:12:55;13.60;99.90
16060;DHT22;8134;49.552;7.632;2022-07-12T05:15:21;13.70;99.90
16060;DHT22;8134;49.552;7.632;2022-07-12T05:17:46;13.70;99.90
16060;DHT22;8134;49.552;7.632;2022-07-12T05:20:12;13.80;99.90
16060;DHT22;8134;49.552;7.632;2022-07-12T05:22:37;13.80;99.90
16060;DHT22;8134;49.552;7.632;2022-07-12T05:25:03;13.80;99.90
16060;DHT22;8134;49.552;7.632;2022-07-12T05:27:30;13.90;99.90
16060;DHT22;8134;49.552;7.632;2022-07-12T05:29:56;13.90;99.90
16060;DHT22;8134;49.552;7.632;2022-07-12T05:32:22;14.00;99.90
16060;DHT22;8134;49.552;7.632;2022-07-12T05:34:49;14.10;99.90
16060;DHT22;8134;49.552;7.632;2022-07-12T05:37:14;14.20;99.90
16060;DHT22;8134;49.552;7.632;2022-07-12T05:39:40;14.30;99.90
16060;DHT22;8134;49.552;7.632;2022-07-12T05:42:05;14.30;99.90
16060;DHT22;8134;49.552;7.632;2022-07-12T05:44:32;14.40;99.90
16060;DHT22;8134;49.552;7.632;2022-07-12T05:46:57;14.50;99.90
16060;DHT22;8134;49.552;7.632;2022-07-12T05:49:23;14.50;99.90
16060;DHT22;8134;49.552;7.632;2022-07-12T05:51:48;14.60;99.90
16060;DHT22;8134;49.552;7.632;2022-07-12T05:54:33;14.60;99.90
16060;DHT22;8134;49.552;7.632;2022-07-12T05:56:58;14.70;99.90
16060;DHT22;8134;49.552;7.632;2022-07-12T05:59:24;14.80;99.90
16060;DHT22;8134;49.552;7.632;2022-07-12T06:01:49;14.90;99.90
16060;DHT22;8134;49.552;7.632;2022-07-12T06:04:15;14.90;99.90
16060;DHT22;8134;49.552;7.632;2022-07-12T06:06:41;15.00;99.90
16060;DHT22;8134;49.552;7.632;2022-07-12T06:09:06;15.00;99.90
16060;DHT22;8134;49.552;7.632;2022-07-12T06:11:32;15.10;99.90
16060;DHT22;8134;49.552;7.632;2022-07-12T06:13:58;15.10;99.90
16060;DHT22;8134;49.552;7.632;2022-07-12T06:16:24;15.20;99.90
16060;DHT22;8134;49.552;7.632;2022-07-12T06:18:50;15.40;99.90
16060;DHT22;8134;49.552;7.632;2022-07-12T06:21:15;15.40;99.90
16060;DHT22;8134;49.552;7.632;2022-07-12T06:23:41;15.50;99.90
16060;DHT22;8134;49.552;7.632;2022-07-12T06:26:06;15.60;99.90
16060;DHT22;8134;49.552;7.632;2022-07-12T06:28:32;15.70;99.90
16060;DHT22;8134;49.552;7.632;2022-07-12T06:30:57;15.80;99.90
16060;DHT22;8134;49.552;7.632;2022-07-12T06:33:23;16.00;99.90
16060;DHT22;8134;49.552;7.632;2022-07-12T06:35:48;16.10;99.90
16060;DHT22;8134;49.552;7.632;2022-07-12T06:38:14;16.20;99.90
16060;DHT22;8134;49.552;7.632;2022-07-12T06:40:39;16.30;99.90
16060;DHT22;8134;49.552;7.632;2022-07-12T06:43:11;16.40;99.90
16060;DHT22;8134;49.552;7.632;2022-07-12T06:45:38;16.40;99.90
16060;DHT22;8134;49.552;7.632;2022-07-12T06:48:04;16.50;99.90
16060;DHT22;8134;49.552;7.632;2022-07-12T06:50:30;16.60;99.90
16060;DHT22;8134;49.552;7.632;2022-07-12T06:52:56;16.60;99.90
16060;DHT22;8134;49.552;7.632;2022-07-12T06:55:22;16.60;99.90
16060;DHT22;8134;49.552;7.632;2022-07-12T06:57:47;16.60;99.90
16060;DHT22;8134;49.552;7.632;2022-07-12T07:00:13;16.70;99.90
16060;DHT22;8134;49.552;7.632;2022-07-12T07:02:39;16.80;99.90
16060;DHT22;8134;49.552;7.632;2022-07-12T07:05:05;16.80;99.90
16060;DHT22;8134;49.552;7.632;2022-07-12T07:07:31;16.90;99.90
16060;DHT22;8134;49.552;7.632;2022-07-12T07:09:56;16.90;99.90
16060;DHT22;8134;49.552;7.632;2022-07-12T07:12:22;17.10;99.90
16060;DHT22;8134;49.552;7.632;2022-07-12T07:14:48;17.20;99.90
16060;DHT22;8134;49.552;7.632;2022-07-12T07:17:17;17.40;99.90
16060;DHT22;8134;49.552;7.632;2022-07-12T07:19:43;17.40;99.90
16060;DHT22;8134;49.552;7.632;2022-07-12T07:22:09;17.50;99.90
16060;DHT22;8134;49.552;7.632;2022-07-12T07:24:35;17.70;99.90
16060;DHT22;8134;49.552;7.632;2022-07-12T07:27:00;18.00;99.90
16060;DHT22;8134;49.552;7.632;2022-07-12T07:29:26;18.20;99.90
16060;DHT22;8134;49.552;7.632;2022-07-12T07:32:10;18.30;99.90
16060;DHT22;8134;49.552;7.632;2022-07-12T07:34:36;18.40;99.90
16060;DHT22;8134;49.552;7.632;2022-07-12T07:37:02;18.60;99.90
16060;DHT22;8134;49.552;7.632;2022-07-12T07:39:27;18.70;99.90
16060;DHT22;8134;49.552;7.632;2022-07-12T07:41:53;18.90;99.90
16060;DHT22;8134;49.552;7.632;2022-07-12T07:44:18;19.30;99.90
16060;DHT22;8134;49.552;7.632;2022-07-12T07:46:44;19.60;99.90
16060;DHT22;8134;49.552;7.632;2022-07-12T07:49:09;19.80;99.90
16060;DHT22;8134;49.552;7.632;2022-07-12T07:51:35;20.10;99.90
16060;DHT22;8134;49.552;7.632;2022-07-12T07:54:00;20.20;99.90
16060;DHT22;8134;49.552;7.632;2022-07-12T07:56:28;20.40;99.90
16060;DHT22;8134;49.552;7.632;2022-07-12T07:58:53;20.70;99.90
16060;DHT22;8134;49.552;7.632;2022-07-12T08:01:19;20.70;99.90
16060;DHT22;8134;49.552;7.632;2022-07-12T08:03:45;20.90;99.90
16060;DHT22;8134;49.552;7.632;2022-07-12T08:06:10;21.00;99.90
16060;DHT22;8134;49.552;7.632;2022-07-12T08:08:36;21.10;99.90
16060;DHT22;8134;49.552;7.632;2022-07-12T08:11:01;21.30;99.90
16060;DHT22;8134;49.552;7.632;2022-07-12T08:13:30;21.50;99.90
16060;DHT22;8134;49.552;7.632;2022-07-12T08:15:55;21.50;99.90
16060;DHT22;8134;49.552;7.632;2022-07-12T08:18:21;21.80;99.90
16060;DHT22;8134;49.552;7.632;2022-07-12T08:20:46;22.00;99.90
16060;DHT22;8134;49.552;7.632;2022-07-12T08:23:12;22.20;99.90
16060;DHT22;8134;49.552;7.632;2022-07-12T08:25:37;22.30;99.90
16060;DHT22;8134;49.552;7.632;2022-07-12T08:28:03;22.40;99.90
16060;DHT22;8134;49.552;7.632;2022-07-12T08:30:29;22.30;99.90
16060;DHT22;8134;49.552;7.632;2022-07-12T08:32:54;22.20;99.90
16060;DHT22;8134;49.552;7.632;2022-07-12T08:35:20;22.10;99.90
16060;DHT22;8134;49.552;7.632;2022-07-12T08:37:46;22.00;99.90
16060;DHT22;8134;49.552;7.632;2022-07-12T08:40:11;22.00;99.90
16060;DHT22;8134;49.552;7.632;2022-07-12T08:42:40;22.10;99.90
16060;DHT22;8134;49.552;7.632;2022-07-12T08:45:06;22.20;99.90
16060;DHT22;8134;49.552;7.632;2022-07-12T08:47:31;22.30;99.90
16060;DHT22;8134;49.552;7.632;2022-07-12T08:50:16;22.30;99.90
16060;DHT22;8134;49.552;7.632;2022-07-12T08:52:48;22.30;99.90
16060;DHT22;8134;49.552;7.632;2022-07-12T08:57:46;22.40;99.90
16060;DHT22;8134;49.552;7.632;2022-07-12T09:00:12;22.40;98.70
16060;DHT22;8134;49.552;7.632;2022-07-12T09:02:57;22.20;99.30
16060;DHT22;8134;49.552;7.632;2022-07-12T09:05:23;22.20;99.90
16060;DHT22;8134;49.552;7.632;2022-07-12T09:07:49;22.20;99.40
16060;DHT22;8134;49.552;7.632;2022-07-12T09:10:15;22.30;98.40
16060;DHT22;8134;49.552;7.632;2022-07-12T09:12:41;22.40;97.70
16060;DHT22;8134;49.552;7.632;2022-07-12T09:15:11;22.50;98.00
16060;DHT22;8134;49.552;7.632;2022-07-12T09:17:36;22.40;97.70
16060;DHT22;8134;49.552;7.632;2022-07-12T09:20:02;22.50;98.00
16060;DHT22;8134;49.552;7.632;2022-07-12T09:22:28;22.50;97.90
16060;DHT22;8134;49.552;7.632;2022-07-12T09:24:54;22.60;96.80
16060;DHT22;8134;49.552;7.632;2022-07-12T09:27:26;22.70;97.20
16060;DHT22;8134;49.552;7.632;2022-07-12T09:29:51;22.80;96.80
16060;DHT22;8134;49.552;7.632;2022-07-12T09:32:17;22.70;96.70
16060;DHT22;8134;49.552;7.632;2022-07-12T09:35:02;22.70;96.60
16060;DHT22;8134;49.552;7.632;2022-07-12T09:37:46;22.90;95.40
16060;DHT22;8134;49.552;7.632;2022-07-12T09:40:12;23.10;95.20
16060;DHT22;8134;49.552;7.632;2022-07-12T09:42:39;23.20;95.00
16060;DHT22;8134;49.552;7.632;2022-07-12T09:45:05;23.30;94.80
16060;DHT22;8134;49.552;7.632;2022-07-12T09:47:31;23.40;94.70
16060;DHT22;8134;49.552;7.632;2022-07-12T09:49:57;23.30;94.90
16060;DHT22;8134;49.552;7.632;2022-07-12T09:52:26;23.40;94.90
16060;DHT22;8134;49.552;7.632;2022-07-12T09:54:53;23.50;94.90
16060;DHT22;8134;49.552;7.632;2022-07-12T09:57:25;23.50;94.50
16060;DHT22;8134;49.552;7.632;2022-07-12T09:59:51;23.50;94.50
16060;DHT22;8134;49.552;7.632;2022-07-12T10:02:17;23.50;93.60
16060;DHT22;8134;49.552;7.632;2022-07-12T10:04:43;23.60;93.30
16060;DHT22;8134;49.552;7.632;2022-07-12T10:07:11;23.70;92.70
16060;DHT22;8134;49.552;7.632;2022-07-12T10:09:42;23.80;92.10
16060;DHT22;8134;49.552;7.632;2022-07-12T10:12:09;23.80;92.50
16060;DHT22;8134;49.552;7.632;2022-07-12T10:14:36;23.80;92.50
16060;DHT22;8134;49.552;7.632;2022-07-12T10:17:02;23.80;92.20
16060;DHT22;8134;49.552;7.632;2022-07-12T10:19:30;23.80;91.60
16060;DHT22;8134;49.552;7.632;2022-07-12T10:21:57;23.90;91.90
16060;DHT22;8134;49.552;7.632;2022-07-12T10:24:44;24.10;91.10
16060;DHT22;8134;49.552;7.632;2022-07-12T10:29:41;24.20;91.00
16060;DHT22;8134;49.552;7.632;2022-07-12T10:37:24;24.30;88.00
16060;DHT22;8134;49.552;7.632;2022-07-12T10:40:10;24.40;87.90
16060;DHT22;8134;49.552;7.632;2022-07-12T10:42:36;24.40;89.10
16060;DHT22;8134;49.552;7.632;2022-07-12T10:45:12;24.40;88.50
16060;DHT22;8134;49.552;7.632;2022-07-12T10:47:54;24.40;90.40
16060;DHT22;8134;49.552;7.632;2022-07-12T10:50:28;24.40;90.10
16060;DHT22;8134;49.552;7.632;2022-07-12T10:56:10;24.60;86.40
16060;DHT22;8134;49.552;7.632;2022-07-12T10:58:36;24.70;87.90
16060;DHT22;8134;49.552;7.632;2022-07-12T11:01:03;24.70;90.00
16060;DHT22;8134;49.552;7.632;2022-07-12T11:03:43;24.90;86.40
16060;DHT22;8134;49.552;7.632;2022-07-12T11:06:09;24.90;86.50
16060;DHT22;8134;49.552;7.632;2022-07-12T11:11:13;24.90;87.30
16060;DHT22;8134;49.552;7.632;2022-07-12T11:13:38;25.10;86.90
16060;DHT22;8134;49.552;7.632;2022-07-12T11:16:04;25.20;87.20
16060;DHT22;8134;49.552;7.632;2022-07-12T11:18:30;25.30;85.60
16060;DHT22;8134;49.552;7.632;2022-07-12T11:20:56;25.40;84.70
16060;DHT22;8134;49.552;7.632;2022-07-12T11:23:22;25.30;87.20
16060;DHT22;8134;49.552;7.632;2022-07-12T11:25:48;25.50;86.00
16060;DHT22;8134;49.552;7.632;2022-07-12T11:28:13;25.60;86.40
16060;DHT22;8134;49.552;7.632;2022-07-12T11:30:47;25.70;83.40
16060;DHT22;8134;49.552;7.632;2022-07-12T11:33:12;25.90;81.00
16060;DHT22;8134;49.552;7.632;2022-07-12T11:35:38;26.10;80.70
16060;DHT22;8134;49.552;7.632;2022-07-12T11:38:04;26.30;78.90
16060;DHT22;8134;49.552;7.632;2022-07-12T11:40:29;26.50;81.50
16060;DHT22;8134;49.552;7.632;2022-07-12T11:42:56;26.70;80.00
16060;DHT22;8134;49.552;7.632;2022-07-12T11:45:23;26.70;80.60
16060;DHT22;8134;49.552;7.632;2022-07-12T11:47:49;26.80;81.30
16060;DHT22;8134;49.552;7.632;2022-07-12T11:50:16;26.80;80.00
16060;DHT22;8134;49.552;7.632;2022-07-12T11:52:42;26.80;78.30
16060;DHT22;8134;49.552;7.632;2022-07-12T11:55:08;26.70;78.20
16060;DHT22;8134;49.552;7.632;2022-07-12T11:57:34;26.60;77.60
16060;DHT22;8134;49.552;7.632;2022-07-12T12:00:12;26.40;78.40
16060;DHT22;8134;49.552;7.632;2022-07-12T12:02:38;26.30;81.00
16060;DHT22;8134;49.552;7.632;2022-07-12T12:05:03;26.30;78.80
16060;DHT22;8134;49.552;7.632;2022-07-12T12:07:29;26.40;78.30
16060;DHT22;8134;49.552;7.632;2022-07-12T12:09:59;26.40;77.60
16060;DHT22;8134;49.552;7.632;2022-07-12T12:12:25;26.40;76.80
16060;DHT22;8134;49.552;7.632;2022-07-12T12:14:50;26.50;76.40
16060;DHT22;8134;49.552;7.632;2022-07-12T12:17:16;26.60;76.30
16060;DHT22;8134;49.552;7.632;2022-07-12T12:19:42;26.60;76.30
16060;DHT22;8134;49.552;7.632;2022-07-12T12:22:27;26.60;77.90
16060;DHT22;8134;49.552;7.632;2022-07-12T12:25:03;26.60;77.40
16060;DHT22;8134;49.552;7.632;2022-07-12T12:27:29;26.70;77.50
16060;DHT22;8134;49.552;7.632;2022-07-12T12:29:58;26.70;76.60
16060;DHT22;8134;49.552;7.632;2022-07-12T12:32:23;26.70;77.20
16060;DHT22;8134;49.552;7.632;2022-07-12T12:35:04;26.80;77.00
16060;DHT22;8134;49.552;7.632;2022-07-12T12:37:30;26.90;76.20
16060;DHT22;8134;49.552;7.632;2022-07-12T12:39:56;27.00;73.40
16060;DHT22;8134;49.552;7.632;2022-07-12T12:42:24;27.10;76.60
16060;DHT22;8134;49.552;7.632;2022-07-12T12:44:50;27.10;73.80
16060;DHT22;8134;49.552;7.632;2022-07-12T12:47:16;27.10;74.80
16060;DHT22;8134;49.552;7.632;2022-07-12T12:49:57;27.10;73.00
16060;DHT22;8134;49.552;7.632;2022-07-12T12:52:26;27.20;74.50
16060;DHT22;8134;49.552;7.632;2022-07-12T12:54:52;27.20;74.00
16060;DHT22;8134;49.552;7.632;2022-07-12T12:57:18;27.20;72.90
16060;DHT22;8134;49.552;7.632;2022-07-12T12:59:44;27.30;74.30
16060;DHT22;8134;49.552;7.632;2022-07-12T13:02:09;27.30;73.80
16060;DHT22;8134;49.552;7.632;2022-07-12T13:04:35;27.40;71.50
16060;DHT22;8134;49.552;7.632;2022-07-12T13:07:01;27.40;66.00
16060;DHT22;8134;49.552;7.632;2022-07-12T13:09:28;27.40;68.40
16060;DHT22;8134;49.552;7.632;2022-07-12T13:11:54;27.30;69.50
16060;DHT22;8134;49.552;7.632;2022-07-12T13:14:20;27.30;72.70
16060;DHT22;8134;49.552;7.632;2022-07-12T13:16:45;27.40;71.70
16060;DHT22;8134;49.552;7.632;2022-07-12T13:19:11;27.50;70.90
16060;DHT22;8134;49.552;7.632;2022-07-12T13:21:36;27.50;71.40
16060;DHT22;8134;49.552;7.632;2022-07-12T13:24:02;27.60;68.80
16060;DHT22;8134;49.552;7.632;2022-07-12T13:26:27;27.60;68.20
16060;DHT22;8134;49.552;7.632;2022-07-12T13:28:54;27.70;71.00
16060;DHT22;8134;49.552;7.632;2022-07-12T13:31:19;27.70;68.40
16060;DHT22;8134;49.552;7.632;2022-07-12T13:33:45;27.80;68.90
16060;DHT22;8134;49.552;7.632;2022-07-12T13:36:10;27.90;71.00
16060;DHT22;8134;49.552;7.632;2022-07-12T13:38:36;27.90;70.00
16060;DHT22;8134;49.552;7.632;2022-07-12T13:41:01;28.00;65.40
16060;DHT22;8134;49.552;7.632;2022-07-12T13:43:27;28.00;64.70
16060;DHT22;8134;49.552;7.632;2022-07-12T13:45:52;28.10;63.70
16060;DHT22;8134;49.552;7.632;2022-07-12T14:54:38;27.50;62.40
16060;DHT22;8134;49.552;7.632;2022-07-12T14:57:04;27.50;64.50
16060;DHT22;8134;49.552;7.632;2022-07-12T14:59:29;27.70;63.00
16060;DHT22;8134;49.552;7.632;2022-07-12T15:01:55;27.80;64.00
16060;DHT22;8134;49.552;7.632;2022-07-12T15:04:21;28.00;62.10
16060;DHT22;8134;49.552;7.632;2022-07-12T15:06:47;28.20;65.00
16060;DHT22;8134;49.552;7.632;2022-07-12T15:09:12;28.30;65.10
16060;DHT22;8134;49.552;7.632;2022-07-12T15:11:38;28.40;66.10
16060;DHT22;8134;49.552;7.632;2022-07-12T15:14:04;28.40;63.30
16060;DHT22;8134;49.552;7.632;2022-07-12T15:16:30;28.50;63.00
16060;DHT22;8134;49.552;7.632;2022-07-12T15:18:55;28.50;63.50
16060;DHT22;8134;49.552;7.632;2022-07-12T15:21:22;28.60;63.90
16060;DHT22;8134;49.552;7.632;2022-07-12T15:23:48;28.70;64.00
16060;DHT22;8134;49.552;7.632;2022-07-12T15:26:13;28.70;60.70
16060;DHT22;8134;49.552;7.632;2022-07-12T15:28:53;28.80;60.10
16060;DHT22;8134;49.552;7.632;2022-07-12T15:31:18;28.80;63.00
16060;DHT22;8134;49.552;7.632;2022-07-12T15:33:44;28.70;63.50
16060;DHT22;8134;49.552;7.632;2022-07-12T15:36:10;28.60;64.80
16060;DHT22;8134;49.552;7.632;2022-07-12T15:38:35;28.50;62.30
16060;DHT22;8134;49.552;7.632;2022-07-12T15:41:01;28.50;62.90
16060;DHT22;8134;49.552;7.632;2022-07-12T15:43:26;28.50;60.70
16060;DHT22;8134;49.552;7.632;2022-07-12T15:45:52;28.50;61.30
16060;DHT22;8134;49.552;7.632;2022-07-12T15:48:18;28.40;61.70
16060;DHT22;8134;49.552;7.632;2022-07-12T15:50:43;28.30;64.10
16060;DHT22;8134;49.552;7.632;2022-07-12T15:53:09;28.20;64.00
16060;DHT22;8134;49.552;7.632;2022-07-12T15:55:57;28.30;63.40
16060;DHT22;8134;49.552;7.632;2022-07-12T15:58:41;28.40;61.90
16060;DHT22;8134;49.552;7.632;2022-07-12T16:01:07;28.40;61.10
16060;DHT22;8134;49.552;7.632;2022-07-12T16:03:34;28.50;60.90
16060;DHT22;8134;49.552;7.632;2022-07-12T16:06:01;28.60;61.30
16060;DHT22;8134;49.552;7.632;2022-07-12T16:08:27;28.60;59.70
16060;DHT22;8134;49.552;7.632;2022-07-12T16:10:54;28.70;59.70
16060;DHT22;8134;49.552;7.632;2022-07-12T16:13:20;28.60;59.70
16060;DHT22;8134;49.552;7.632;2022-07-12T16:15:45;28.50;58.00
16060;DHT22;8134;49.552;7.632;2022-07-12T16:18:11;28.50;58.60
16060;DHT22;8134;49.552;7.632;2022-07-12T16:20:37;28.50;62.10
16060;DHT22;8134;49.552;7.632;2022-07-12T16:23:03;28.40;61.20
16060;DHT22;8134;49.552;7.632;2022-07-12T16:25:31;28.40;62.10
16060;DHT22;8134;49.552;7.632;2022-07-12T16:27:57;28.40;62.20
16060;DHT22;8134;49.552;7.632;2022-07-12T16:30:23;28.40;64.20
16060;DHT22;8134;49.552;7.632;2022-07-12T16:32:49;28.40;62.10
16060;DHT22;8134;49.552;7.632;2022-07-12T16:35:14;28.60;60.90
16060;DHT22;8134;49.552;7.632;2022-07-12T16:37:40;28.70;59.70
16060;DHT22;8134;49.552;7.632;2022-07-12T16:40:06;28.70;60.90
16060;DHT22;8134;49.552;7.632;2022-07-12T16:42:31;28.60;61.60
16060;DHT22;8134;49.552;7.632;2022-07-12T16:44:57;28.60;58.10
16060;DHT22;8134;49.552;7.632;2022-07-12T16:47:22;28.60;59.00
16060;DHT22;8134;49.552;7.632;2022-07-12T16:49:48;28.60;58.10
16060;DHT22;8134;49.552;7.632;2022-07-12T16:52:13;28.50;57.10
16060;DHT22;8134;49.552;7.632;2022-07-12T16:54:39;28.40;57.60
16060;DHT22;8134;49.552;7.632;2022-07-12T16:57:04;28.30;57.50
16060;DHT22;8134;49.552;7.632;2022-07-12T16:59:30;28.30;57.60
16060;DHT22;8134;49.552;7.632;2022-07-12T17:01:56;28.30;59.50
16060;DHT22;8134;49.552;7.632;2022-07-12T17:04:21;28.20;62.70
16060;DHT22;8134;49.552;7.632;2022-07-12T17:06:47;28.00;65.40
16060;DHT22;8134;49.552;7.632;2022-07-12T17:09:13;27.90;64.60
16060;DHT22;8134;49.552;7.632;2022-07-12T17:11:38;27.90;59.40
16060;DHT22;8134;49.552;7.632;2022-07-12T17:14:05;27.90;59.60
16060;DHT22;8134;49.552;7.632;2022-07-12T17:16:30;27.90;58.60
16060;DHT22;8134;49.552;7.632;2022-07-12T17:18:56;28.00;59.20
16060;DHT22;8134;49.552;7.632;2022-07-12T17:21:29;28.00;59.60
16060;DHT22;8134;49.552;7.632;2022-07-12T17:23:54;28.00;62.40
16060;DHT22;8134;49.552;7.632;2022-07-12T17:26:20;28.00;63.70
16060;DHT22;8134;49.552;7.632;2022-07-12T17:28:46;27.80;66.10
16060;DHT22;8134;49.552;7.632;2022-07-12T17:31:11;27.70;60.30
16060;DHT22;8134;49.552;7.632;2022-07-12T17:33:37;27.60;61.50
16060;DHT22;8134;49.552;7.632;2022-07-12T17:36:03;27.60;65.00
16060;DHT22;8134;49.552;7.632;2022-07-12T17:38:28;27.40;61.60
16060;DHT22;8134;49.552;7.632;2022-07-12T17:40:54;27.40;63.30
16060;DHT22;8134;49.552;7.632;2022-07-12T17:43:20;27.40;65.00
16060;DHT22;8134;49.552;7.632;2022-07-12T17:45:46;27.40;65.80
16060;DHT22;8134;49.552;7.632;2022-07-12T17:48:11;27.50;64.00
16060;DHT22;8134;49.552;7.632;2022-07-12T17:50:37;27.40;64.80
16060;DHT22;8134;49.552;7.632;2022-07-12T17:53:02;27.40;63.40
16060;DHT22;8134;49.552;7.632;2022-07-12T18:20:04;26.00;68.80
16060;DHT22;8134;49.552;7.632;2022-07-12T18:22:30;25.80;72.70
16060;DHT22;8134;49.552;7.632;2022-07-12T18:24:57;25.60;76.50
16060;DHT22;8134;49.552;7.632;2022-07-12T18:27:22;25.50;79.70
16060;DHT22;8134;49.552;7.632;2022-07-12T18:29:48;25.30;82.30
16060;DHT22;8134;49.552;7.632;2022-07-12T18:32:13;25.10;82.90
16060;DHT22;8134;49.552;7.632;2022-07-12T18:34:39;24.90;82.20
16060;DHT22;8134;49.552;7.632;2022-07-12T18:37:04;24.70;84.30
16060;DHT22;8134;49.552;7.632;2022-07-12T18:39:30;24.50;85.40
16060;DHT22;8134;49.552;7.632;2022-07-12T18:41:56;24.30;86.40
16060;DHT22;8134;49.552;7.632;2022-07-12T18:44:22;24.10;86.50
16060;DHT22;8134;49.552;7.632;2022-07-12T18:46:47;23.90;87.60
16060;DHT22;8134;49.552;7.632;2022-07-12T18:49:13;23.70;88.40
16060;DHT22;8134;49.552;7.632;2022-07-12T18:51:39;23.50;88.40
16060;DHT22;8134;49.552;7.632;2022-07-12T18:54:05;23.30;90.20
16060;DHT22;8134;49.552;7.632;2022-07-12T18:56:30;23.10;90.20
16060;DHT22;8134;49.552;7.632;2022-07-12T18:58:56;22.90;90.30
16060;DHT22;8134;49.552;7.632;2022-07-12T19:01:22;22.80;90.80
16060;DHT22;8134;49.552;7.632;2022-07-12T19:03:51;22.60;91.20
16060;DHT22;8134;49.552;7.632;2022-07-12T19:06:17;22.50;91.70
16060;DHT22;8134;49.552;7.632;2022-07-12T19:08:42;22.30;91.80
16060;DHT22;8134;49.552;7.632;2022-07-12T19:11:08;22.20;92.10
16060;DHT22;8134;49.552;7.632;2022-07-12T19:13:33;22.10;92.00
16060;DHT22;8134;49.552;7.632;2022-07-12T19:15:59;21.90;91.60
16060;DHT22;8134;49.552;7.632;2022-07-12T19:18:25;21.80;93.00
16060;DHT22;8134;49.552;7.632;2022-07-12T19:20:50;21.70;93.20
16060;DHT22;8134;49.552;7.632;2022-07-12T19:23:16;21.60;92.90
16060;DHT22;8134;49.552;7.632;2022-07-12T19:25:41;21.40;93.30
16060;DHT22;8134;49.552;7.632;2022-07-12T19:28:07;21.30;93.80
16060;DHT22;8134;49.552;7.632;2022-07-12T19:30:32;21.20;93.90
16060;DHT22;8134;49.552;7.632;2022-07-12T19:32:58;21.10;93.60
16060;DHT22;8134;49.552;7.632;2022-07-12T19:35:24;21.00;94.00
16060;DHT22;8134;49.552;7.632;2022-07-12T19:37:49;20.90;94.40
16060;DHT22;8134;49.552;7.632;2022-07-12T19:40:15;20.90;94.30
16060;DHT22;8134;49.552;7.632;2022-07-12T19:42:40;20.90;94.30
16060;DHT22;8134;49.552;7.632;2022-07-12T19:45:06;20.80;94.20
16060;DHT22;8134;49.552;7.632;2022-07-12T19:47:32;20.80;94.80
16060;DHT22;8134;49.552;7.632;2022-07-12T19:49:57;20.80;95.00
16060;DHT22;8134;49.552;7.632;2022-07-12T19:52:23;20.60;95.00
16060;DHT22;8134;49.552;7.632;2022-07-12T19:54:48;20.50;95.30
16060;DHT22;8134;49.552;7.632;2022-07-12T19:57:14;20.30;95.70
16060;DHT22;8134;49.552;7.632;2022-07-12T19:59:42;20.30;95.30
16060;DHT22;8134;49.552;7.632;2022-07-12T20:02:11;20.20;95.90
16060;DHT22;8134;49.552;7.632;2022-07-12T20:04:37;20.10;95.70
16060;DHT22;8134;49.552;7.632;2022-07-12T20:07:02;20.00;96.40
16060;DHT22;8134;49.552;7.632;2022-07-12T20:09:28;19.90;95.90
16060;DHT22;8134;49.552;7.632;2022-07-12T20:11:54;19.90;96.20
16060;DHT22;8134;49.552;7.632;2022-07-12T20:14:19;19.80;96.40
16060;DHT22;8134;49.552;7.632;2022-07-12T20:16:45;19.70;96.80
16060;DHT22;8134;49.552;7.632;2022-07-12T20:19:10;19.60;97.10
16060;DHT22;8134;49.552;7.632;2022-07-12T20:21:36;19.50;97.30
16060;DHT22;8134;49.552;7.632;2022-07-12T20:24:02;19.40;97.50
16060;DHT22;8134;49.552;7.632;2022-07-12T20:26:28;19.40;97.40
16060;DHT22;8134;49.552;7.632;2022-07-12T20:28:54;19.30;97.50
16060;DHT22;8134;49.552;7.632;2022-07-12T20:31:20;19.30;97.80
16060;DHT22;8134;49.552;7.632;2022-07-12T20:33:46;19.20;98.00
16060;DHT22;8134;49.552;7.632;2022-07-12T20:36:30;19.10;98.00
16060;DHT22;8134;49.552;7.632;2022-07-12T20:38:56;19.00;98.00
16060;DHT22;8134;49.552;7.632;2022-07-12T20:41:21;18.90;98.30
16060;DHT22;8134;49.552;7.632;2022-07-12T20:43:47;18.90;98.80
16060;DHT22;8134;49.552;7.632;2022-07-12T20:46:14;18.80;99.00
16060;DHT22;8134;49.552;7.632;2022-07-12T20:48:40;18.80;99.00
16060;DHT22;8134;49.552;7.632;2022-07-12T20:51:06;18.80;99.10
16060;DHT22;8134;49.552;7.632;2022-07-12T20:53:32;18.70;99.00
16060;DHT22;8134;49.552;7.632;2022-07-12T20:55:58;18.70;98.90
16060;DHT22;8134;49.552;7.632;2022-07-12T20:58:30;18.60;99.10
16060;DHT22;8134;49.552;7.632;2022-07-12T21:00:55;18.50;99.40
16060;DHT22;8134;49.552;7.632;2022-07-12T21:03:21;18.50;99.50
16060;DHT22;8134;49.552;7.632;2022-07-12T21:05:47;18.40;99.50
16060;DHT22;8134;49.552;7.632;2022-07-12T21:08:12;18.40;99.90
16060;DHT22;8134;49.552;7.632;2022-07-12T21:10:38;18.30;99.90
16060;DHT22;8134;49.552;7.632;2022-07-12T21:13:03;18.30;99.90
16060;DHT22;8134;49.552;7.632;2022-07-12T21:15:29;18.20;99.90
16060;DHT22;8134;49.552;7.632;2022-07-12T21:17:55;18.10;99.90
16060;DHT22;8134;49.552;7.632;2022-07-12T21:20:21;18.10;99.90
16060;DHT22;8134;49.552;7.632;2022-07-12T21:22:47;18.10;99.90
16060;DHT22;8134;49.552;7.632;2022-07-12T21:25:13;18.00;99.90
16060;DHT22;8134;49.552;7.632;2022-07-12T21:27:38;18.00;99.90
16060;DHT22;8134;49.552;7.632;2022-07-12T21:30:04;18.00;99.90
16060;DHT22;8134;49.552;7.632;2022-07-12T21:32:30;18.00;99.90
16060;DHT22;8134;49.552;7.632;2022-07-12T21:34:55;18.00;99.90
16060;DHT22;8134;49.552;7.632;2022-07-12T21:37:23;17.90;99.90
16060;DHT22;8134;49.552;7.632;2022-07-12T21:39:48;17.80;99.90
